OAL063 RJKA-RJFG
Flight info
| Callsign | OAL063 |
|---|---|
| Flight time | 0h 55m |
| Altitude | 5500 |
| Route | TUMGI ALGIX SEPIA NAKATANE |
| Aircraft | C208/L-SDFGR/C |
Departure
| Time | 2026-04-29 15:55 |
|---|---|
| Airport | Amami Airport (RJKA) |
Arrival
| Time | 2026-04-29 16:51 |
|---|---|
| Airport | New Tanegashima Airport (RJFG) |
| Time | Latitude | Longitude | Altitude | Speed | Heading |
|---|---|---|---|---|---|
| 2026-04-29 15:40 | 28.43119 | 129.70900 | 55 ft | 0 kts | 298° |
| 2026-04-29 15:53 | 28.43128 | 129.70915 | 52 ft | 8 kts | 90° |
| 2026-04-29 15:53 | 28.43128 | 129.71022 | 55 ft | 15 kts | 89° |
| 2026-04-29 15:53 | 28.43112 | 129.71144 | 55 ft | 13 kts | 110° |
| 2026-04-29 15:54 | 28.43090 | 129.71200 | 51 ft | 5 kts | 114° |
| 2026-04-29 15:54 | 28.43033 | 129.71238 | 54 ft | 17 kts | 205° |
| 2026-04-29 15:54 | 28.42829 | 129.71124 | 51 ft | 58 kts | 206° |
| 2026-04-29 15:54 | 28.42325 | 129.70853 | 140 ft | 92 kts | 202° |
| 2026-04-29 15:55 | 28.41702 | 129.70645 | 426 ft | 94 kts | 191° |
| 2026-04-29 15:55 | 28.41092 | 129.70354 | 694 ft | 97 kts | 188° |
| 2026-04-29 15:55 | 28.40511 | 129.70687 | 994 ft | 99 kts | 128° |
| 2026-04-29 15:55 | 28.40312 | 129.71443 | 1273 ft | 106 kts | 79° |
| 2026-04-29 15:56 | 28.40518 | 129.71949 | 1467 ft | 109 kts | 50° |
| 2026-04-29 15:56 | 28.41000 | 129.72636 | 1779 ft | 114 kts | 52° |
| 2026-04-29 15:56 | 28.41484 | 129.73375 | 2069 ft | 120 kts | 51° |
| 2026-04-29 15:56 | 28.42006 | 129.74155 | 2333 ft | 127 kts | 52° |
| 2026-04-29 15:57 | 28.42734 | 129.75238 | 2681 ft | 133 kts | 51° |
| 2026-04-29 15:57 | 28.43114 | 129.75802 | 2854 ft | 134 kts | 51° |
| 2026-04-29 15:57 | 28.43679 | 129.76644 | 3109 ft | 137 kts | 52° |
| 2026-04-29 15:57 | 28.44259 | 129.77512 | 3364 ft | 139 kts | 52° |
| 2026-04-29 15:58 | 28.44849 | 129.78390 | 3618 ft | 141 kts | 52° |
| 2026-04-29 15:58 | 28.45445 | 129.79280 | 3874 ft | 142 kts | 52° |
| 2026-04-29 15:58 | 28.46041 | 129.80172 | 4131 ft | 142 kts | 52° |
| 2026-04-29 15:58 | 28.46643 | 129.81069 | 4369 ft | 143 kts | 52° |
| 2026-04-29 15:59 | 28.47247 | 129.81973 | 4621 ft | 144 kts | 52° |
| 2026-04-29 15:59 | 28.47874 | 129.82865 | 4874 ft | 144 kts | 43° |
| 2026-04-29 15:59 | 28.48751 | 129.83389 | 5128 ft | 143 kts | 18° |
| 2026-04-29 15:59 | 28.49679 | 129.83810 | 5375 ft | 144 kts | 22° |
| 2026-04-29 16:00 | 28.50621 | 129.84256 | 5497 ft | 154 kts | 21° |
| 2026-04-29 16:00 | 28.51635 | 129.84729 | 5510 ft | 164 kts | 21° |
| 2026-04-29 16:00 | 28.52715 | 129.85233 | 5509 ft | 169 kts | 21° |
| 2026-04-29 16:00 | 28.53806 | 129.85741 | 5508 ft | 170 kts | 21° |
| 2026-04-29 16:01 | 28.54899 | 129.86248 | 5508 ft | 169 kts | 21° |
| 2026-04-29 16:01 | 28.55989 | 129.86753 | 5509 ft | 169 kts | 21° |
| 2026-04-29 16:01 | 28.57076 | 129.87259 | 5509 ft | 169 kts | 21° |
| 2026-04-29 16:01 | 28.58160 | 129.87764 | 5509 ft | 169 kts | 21° |
| 2026-04-29 16:02 | 28.59249 | 129.88272 | 5509 ft | 169 kts | 21° |
| 2026-04-29 16:02 | 28.60337 | 129.88779 | 5509 ft | 169 kts | 21° |
| 2026-04-29 16:02 | 28.61426 | 129.89286 | 5509 ft | 169 kts | 21° |
| 2026-04-29 16:02 | 28.62501 | 129.89787 | 5509 ft | 169 kts | 21° |
| 2026-04-29 16:03 | 28.63593 | 129.90296 | 5509 ft | 169 kts | 21° |
| 2026-04-29 16:03 | 28.64684 | 129.90806 | 5510 ft | 170 kts | 21° |
| 2026-04-29 16:03 | 28.65781 | 129.91316 | 5509 ft | 170 kts | 21° |
| 2026-04-29 16:03 | 28.66872 | 129.91824 | 5509 ft | 169 kts | 21° |
| 2026-04-29 16:04 | 28.67961 | 129.92332 | 5509 ft | 169 kts | 21° |
| 2026-04-29 16:04 | 28.69052 | 129.92841 | 5509 ft | 169 kts | 21° |
| 2026-04-29 16:04 | 28.70144 | 129.93352 | 5508 ft | 169 kts | 21° |
| 2026-04-29 16:04 | 28.71232 | 129.93859 | 5508 ft | 169 kts | 21° |
| 2026-04-29 16:05 | 28.72324 | 129.94368 | 5508 ft | 169 kts | 21° |
| 2026-04-29 16:05 | 28.73400 | 129.94870 | 5508 ft | 170 kts | 21° |
| 2026-04-29 16:05 | 28.74490 | 129.95381 | 5508 ft | 169 kts | 21° |
| 2026-04-29 16:05 | 28.75581 | 129.95889 | 5508 ft | 169 kts | 21° |
| 2026-04-29 16:06 | 28.76672 | 129.96399 | 5508 ft | 169 kts | 21° |
| 2026-04-29 16:06 | 28.77762 | 129.96910 | 5508 ft | 170 kts | 21° |
| 2026-04-29 16:06 | 28.78854 | 129.97422 | 5508 ft | 170 kts | 21° |
| 2026-04-29 16:06 | 28.79948 | 129.97931 | 5508 ft | 170 kts | 21° |
| 2026-04-29 16:07 | 28.81041 | 129.98442 | 5508 ft | 170 kts | 21° |
| 2026-04-29 16:07 | 28.82130 | 129.98952 | 5508 ft | 169 kts | 21° |
| 2026-04-29 16:07 | 28.83223 | 129.99462 | 5508 ft | 170 kts | 21° |
| 2026-04-29 16:07 | 28.84319 | 129.99975 | 5508 ft | 170 kts | 21° |
| 2026-04-29 16:08 | 28.85412 | 130.00487 | 5508 ft | 170 kts | 21° |
| 2026-04-29 16:08 | 28.86505 | 130.00999 | 5508 ft | 170 kts | 21° |
| 2026-04-29 16:08 | 28.87601 | 130.01512 | 5508 ft | 170 kts | 21° |
| 2026-04-29 16:08 | 28.88697 | 130.02025 | 5508 ft | 170 kts | 21° |
| 2026-04-29 16:09 | 28.89792 | 130.02539 | 5508 ft | 170 kts | 21° |
| 2026-04-29 16:09 | 28.90890 | 130.03053 | 5508 ft | 170 kts | 21° |
| 2026-04-29 16:09 | 28.91985 | 130.03567 | 5508 ft | 170 kts | 21° |
| 2026-04-29 16:09 | 28.93062 | 130.04072 | 5508 ft | 170 kts | 21° |
| 2026-04-29 16:10 | 28.94157 | 130.04585 | 5508 ft | 170 kts | 21° |
| 2026-04-29 16:10 | 28.95251 | 130.05098 | 5507 ft | 170 kts | 21° |
| 2026-04-29 16:10 | 28.96344 | 130.05611 | 5507 ft | 170 kts | 21° |
| 2026-04-29 16:10 | 28.97437 | 130.06124 | 5507 ft | 170 kts | 21° |
| 2026-04-29 16:11 | 28.98531 | 130.06637 | 5507 ft | 170 kts | 21° |
| 2026-04-29 16:11 | 28.99622 | 130.07150 | 5507 ft | 170 kts | 21° |
| 2026-04-29 16:11 | 29.00712 | 130.07662 | 5507 ft | 170 kts | 21° |
| 2026-04-29 16:11 | 29.01806 | 130.08173 | 5506 ft | 170 kts | 21° |
| 2026-04-29 16:12 | 29.02899 | 130.08687 | 5506 ft | 170 kts | 21° |
| 2026-04-29 16:12 | 29.03629 | 130.09030 | 5481 ft | 173 kts | 20° |
| 2026-04-29 16:12 | 29.05160 | 130.09749 | 5495 ft | 182 kts | 21° |
| 2026-04-29 16:12 | 29.06341 | 130.10306 | 5498 ft | 185 kts | 21° |
| 2026-04-29 16:13 | 29.07533 | 130.10866 | 5500 ft | 186 kts | 21° |
| 2026-04-29 16:13 | 29.08738 | 130.11431 | 5502 ft | 187 kts | 21° |
| 2026-04-29 16:13 | 29.09947 | 130.11999 | 5505 ft | 188 kts | 21° |
| 2026-04-29 16:13 | 29.11160 | 130.12570 | 5508 ft | 189 kts | 21° |
| 2026-04-29 16:14 | 29.12360 | 130.13139 | 5508 ft | 189 kts | 21° |
| 2026-04-29 16:14 | 29.13579 | 130.13712 | 5509 ft | 190 kts | 21° |
| 2026-04-29 16:14 | 29.14801 | 130.14287 | 5508 ft | 189 kts | 21° |
| 2026-04-29 16:14 | 29.16017 | 130.14860 | 5508 ft | 189 kts | 21° |
| 2026-04-29 16:15 | 29.17231 | 130.15432 | 5509 ft | 188 kts | 21° |
| 2026-04-29 16:15 | 29.18442 | 130.16003 | 5508 ft | 188 kts | 21° |
| 2026-04-29 16:15 | 29.19647 | 130.16571 | 5507 ft | 188 kts | 21° |
| 2026-04-29 16:15 | 29.20855 | 130.17140 | 5508 ft | 188 kts | 21° |
| 2026-04-29 16:16 | 29.22062 | 130.17710 | 5506 ft | 187 kts | 21° |
| 2026-04-29 16:16 | 29.23270 | 130.18280 | 5507 ft | 187 kts | 21° |
| 2026-04-29 16:16 | 29.24472 | 130.18846 | 5506 ft | 187 kts | 21° |
| 2026-04-29 16:16 | 29.25673 | 130.19414 | 5504 ft | 187 kts | 21° |
| 2026-04-29 16:17 | 29.26874 | 130.19981 | 5506 ft | 186 kts | 21° |
| 2026-04-29 16:17 | 29.28069 | 130.20546 | 5505 ft | 185 kts | 21° |
| 2026-04-29 16:17 | 29.29264 | 130.21109 | 5505 ft | 185 kts | 21° |
| 2026-04-29 16:17 | 29.30444 | 130.21713 | 5505 ft | 185 kts | 27° |
| 2026-04-29 16:18 | 29.31585 | 130.22401 | 5507 ft | 186 kts | 27° |
| 2026-04-29 16:18 | 29.32734 | 130.23072 | 5506 ft | 185 kts | 26° |
| 2026-04-29 16:18 | 29.33883 | 130.23744 | 5505 ft | 185 kts | 26° |
| 2026-04-29 16:18 | 29.35032 | 130.24419 | 5505 ft | 185 kts | 27° |
| 2026-04-29 16:19 | 29.36179 | 130.25094 | 5505 ft | 185 kts | 27° |
| 2026-04-29 16:19 | 29.37325 | 130.25769 | 5504 ft | 185 kts | 27° |
| 2026-04-29 16:19 | 29.38473 | 130.26444 | 5507 ft | 185 kts | 27° |
| 2026-04-29 16:19 | 29.39618 | 130.27118 | 5506 ft | 185 kts | 27° |
| 2026-04-29 16:20 | 29.40764 | 130.27793 | 5504 ft | 185 kts | 27° |
| 2026-04-29 16:20 | 29.41907 | 130.28466 | 5507 ft | 184 kts | 27° |
| 2026-04-29 16:20 | 29.43032 | 130.29129 | 5507 ft | 184 kts | 27° |
| 2026-04-29 16:20 | 29.44172 | 130.29802 | 5507 ft | 184 kts | 27° |
| 2026-04-29 16:21 | 29.45310 | 130.30473 | 5505 ft | 183 kts | 27° |
| 2026-04-29 16:21 | 29.46445 | 130.31142 | 5505 ft | 183 kts | 26° |
| 2026-04-29 16:21 | 29.47572 | 130.31806 | 5503 ft | 182 kts | 26° |
| 2026-04-29 16:21 | 29.48697 | 130.32470 | 5504 ft | 182 kts | 26° |
| 2026-04-29 16:22 | 29.49824 | 130.33135 | 5503 ft | 182 kts | 26° |
| 2026-04-29 16:22 | 29.50953 | 130.33801 | 5505 ft | 182 kts | 27° |
| 2026-04-29 16:22 | 29.52080 | 130.34467 | 5506 ft | 182 kts | 27° |
| 2026-04-29 16:22 | 29.53209 | 130.35133 | 5506 ft | 182 kts | 27° |
| 2026-04-29 16:23 | 29.54336 | 130.35799 | 5502 ft | 182 kts | 27° |
| 2026-04-29 16:23 | 29.55461 | 130.36464 | 5502 ft | 182 kts | 27° |
| 2026-04-29 16:23 | 29.56586 | 130.37129 | 5505 ft | 182 kts | 27° |
| 2026-04-29 16:23 | 29.57696 | 130.37785 | 5504 ft | 182 kts | 27° |
| 2026-04-29 16:24 | 29.58818 | 130.38449 | 5504 ft | 181 kts | 27° |
| 2026-04-29 16:24 | 29.59939 | 130.39113 | 5504 ft | 181 kts | 26° |
| 2026-04-29 16:24 | 29.61063 | 130.39777 | 5505 ft | 181 kts | 26° |
| 2026-04-29 16:24 | 29.62186 | 130.40441 | 5503 ft | 181 kts | 27° |
| 2026-04-29 16:25 | 29.63304 | 130.41104 | 5504 ft | 181 kts | 27° |
| 2026-04-29 16:25 | 29.64420 | 130.41764 | 5503 ft | 180 kts | 27° |
| 2026-04-29 16:25 | 29.65532 | 130.42422 | 5501 ft | 180 kts | 27° |
| 2026-04-29 16:25 | 29.66643 | 130.43081 | 5505 ft | 180 kts | 27° |
| 2026-04-29 16:26 | 29.67759 | 130.43742 | 5505 ft | 180 kts | 27° |
| 2026-04-29 16:26 | 29.68873 | 130.44401 | 5508 ft | 180 kts | 27° |
| 2026-04-29 16:26 | 29.69983 | 130.45060 | 5506 ft | 179 kts | 27° |
| 2026-04-29 16:26 | 29.71090 | 130.45716 | 5504 ft | 179 kts | 27° |
| 2026-04-29 16:27 | 29.72196 | 130.46373 | 5506 ft | 179 kts | 27° |
| 2026-04-29 16:27 | 29.73290 | 130.47022 | 5506 ft | 179 kts | 27° |
| 2026-04-29 16:27 | 29.74394 | 130.47677 | 5507 ft | 178 kts | 27° |
| 2026-04-29 16:27 | 29.75497 | 130.48331 | 5505 ft | 178 kts | 27° |
| 2026-04-29 16:28 | 29.76596 | 130.48985 | 5504 ft | 178 kts | 27° |
| 2026-04-29 16:28 | 29.77696 | 130.49637 | 5507 ft | 178 kts | 27° |
| 2026-04-29 16:28 | 29.78798 | 130.50292 | 5505 ft | 178 kts | 27° |
| 2026-04-29 16:28 | 29.79902 | 130.50947 | 5506 ft | 178 kts | 27° |
| 2026-04-29 16:29 | 29.81004 | 130.51603 | 5507 ft | 178 kts | 27° |
| 2026-04-29 16:29 | 29.82103 | 130.52256 | 5508 ft | 178 kts | 27° |
| 2026-04-29 16:29 | 29.83206 | 130.52912 | 5507 ft | 178 kts | 27° |
| 2026-04-29 16:29 | 29.84292 | 130.53558 | 5507 ft | 178 kts | 27° |
| 2026-04-29 16:30 | 29.85392 | 130.54213 | 5505 ft | 178 kts | 27° |
| 2026-04-29 16:30 | 29.86492 | 130.54865 | 5509 ft | 178 kts | 27° |
| 2026-04-29 16:30 | 29.87592 | 130.55519 | 5510 ft | 177 kts | 27° |
| 2026-04-29 16:30 | 29.88686 | 130.56174 | 5508 ft | 177 kts | 27° |
| 2026-04-29 16:31 | 29.89781 | 130.56826 | 5509 ft | 177 kts | 26° |
| 2026-04-29 16:31 | 29.90874 | 130.57473 | 5509 ft | 177 kts | 27° |
| 2026-04-29 16:31 | 29.91966 | 130.58127 | 5511 ft | 176 kts | 27° |
| 2026-04-29 16:31 | 29.93056 | 130.58778 | 5511 ft | 177 kts | 27° |
| 2026-04-29 16:32 | 29.94154 | 130.59430 | 5513 ft | 177 kts | 27° |
| 2026-04-29 16:32 | 29.94878 | 130.59860 | 5511 ft | 177 kts | 26° |
| 2026-04-29 16:32 | 29.96334 | 130.60729 | 5510 ft | 177 kts | 27° |
| 2026-04-29 16:32 | 29.97427 | 130.61383 | 5511 ft | 177 kts | 27° |
| 2026-04-29 16:33 | 29.99611 | 130.62684 | 5517 ft | 177 kts | 26° |
| 2026-04-29 16:33 | 30.00707 | 130.63336 | 5513 ft | 177 kts | 26° |
| 2026-04-29 16:33 | 30.01798 | 130.63991 | 5515 ft | 176 kts | 27° |
| 2026-04-29 16:34 | 30.02887 | 130.64644 | 5516 ft | 177 kts | 26° |
| 2026-04-29 16:34 | 30.03982 | 130.65296 | 5514 ft | 177 kts | 26° |
| 2026-04-29 16:34 | 30.05077 | 130.65948 | 5515 ft | 177 kts | 26° |
| 2026-04-29 16:34 | 30.06168 | 130.66604 | 5512 ft | 177 kts | 27° |
| 2026-04-29 16:35 | 30.07263 | 130.67259 | 5515 ft | 177 kts | 26° |
| 2026-04-29 16:35 | 30.08358 | 130.67915 | 5516 ft | 177 kts | 26° |
| 2026-04-29 16:35 | 30.09455 | 130.68570 | 5515 ft | 177 kts | 27° |
| 2026-04-29 16:35 | 30.10548 | 130.69225 | 5516 ft | 177 kts | 27° |
| 2026-04-29 16:36 | 30.11643 | 130.69880 | 5520 ft | 177 kts | 26° |
| 2026-04-29 16:36 | 30.12738 | 130.70534 | 5520 ft | 177 kts | 26° |
| 2026-04-29 16:36 | 30.13826 | 130.71187 | 5519 ft | 178 kts | 26° |
| 2026-04-29 16:36 | 30.14924 | 130.71845 | 5520 ft | 177 kts | 26° |
| 2026-04-29 16:37 | 30.16018 | 130.72501 | 5519 ft | 177 kts | 26° |
| 2026-04-29 16:37 | 30.17109 | 130.73154 | 5523 ft | 176 kts | 26° |
| 2026-04-29 16:37 | 30.18202 | 130.73809 | 5522 ft | 177 kts | 26° |
| 2026-04-29 16:37 | 30.18941 | 130.74252 | 5520 ft | 177 kts | 26° |
| 2026-04-29 16:38 | 30.20390 | 130.75124 | 5521 ft | 177 kts | 26° |
| 2026-04-29 16:38 | 30.21486 | 130.75778 | 5507 ft | 177 kts | 26° |
| 2026-04-29 16:38 | 30.22589 | 130.76400 | 5509 ft | 176 kts | 24° |
| 2026-04-29 16:38 | 30.23673 | 130.77002 | 5389 ft | 167 kts | 25° |
| 2026-04-29 16:39 | 30.24716 | 130.77503 | 5257 ft | 159 kts | 15° |
| 2026-04-29 16:39 | 30.25754 | 130.77846 | 5122 ft | 156 kts | 14° |
| 2026-04-29 16:39 | 30.26791 | 130.78189 | 4996 ft | 153 kts | 14° |
| 2026-04-29 16:39 | 30.27812 | 130.78526 | 4869 ft | 152 kts | 14° |
| 2026-04-29 16:40 | 30.28830 | 130.78862 | 4742 ft | 152 kts | 14° |
| 2026-04-29 16:40 | 30.29845 | 130.79196 | 4614 ft | 152 kts | 14° |
| 2026-04-29 16:40 | 30.30862 | 130.79526 | 4492 ft | 152 kts | 14° |
| 2026-04-29 16:40 | 30.31908 | 130.79863 | 4378 ft | 158 kts | 14° |
| 2026-04-29 16:41 | 30.32980 | 130.80212 | 4260 ft | 161 kts | 14° |
| 2026-04-29 16:41 | 30.34048 | 130.80555 | 4142 ft | 161 kts | 14° |
| 2026-04-29 16:41 | 30.35134 | 130.80902 | 4022 ft | 162 kts | 15° |
| 2026-04-29 16:41 | 30.36226 | 130.81250 | 3903 ft | 163 kts | 14° |
| 2026-04-29 16:42 | 30.37325 | 130.81598 | 3787 ft | 164 kts | 14° |
| 2026-04-29 16:42 | 30.38427 | 130.81951 | 3666 ft | 164 kts | 14° |
| 2026-04-29 16:42 | 30.39533 | 130.82306 | 3546 ft | 165 kts | 14° |
| 2026-04-29 16:42 | 30.40523 | 130.82625 | 3520 ft | 161 kts | 14° |
| 2026-04-29 16:43 | 30.41586 | 130.82963 | 3518 ft | 157 kts | 14° |
| 2026-04-29 16:43 | 30.42633 | 130.83298 | 3514 ft | 155 kts | 14° |
| 2026-04-29 16:43 | 30.43673 | 130.83629 | 3517 ft | 155 kts | 14° |
| 2026-04-29 16:43 | 30.44709 | 130.83960 | 3514 ft | 154 kts | 14° |
| 2026-04-29 16:44 | 30.45742 | 130.84292 | 3511 ft | 154 kts | 14° |
| 2026-04-29 16:44 | 30.46770 | 130.84627 | 3514 ft | 152 kts | 14° |
| 2026-04-29 16:44 | 30.47444 | 130.84847 | 3513 ft | 152 kts | 14° |
| 2026-04-29 16:44 | 30.48463 | 130.85182 | 3522 ft | 152 kts | 14° |
| 2026-04-29 16:45 | 30.49817 | 130.85625 | 3515 ft | 152 kts | 14° |
| 2026-04-29 16:45 | 30.50837 | 130.85961 | 3521 ft | 152 kts | 14° |
| 2026-04-29 16:45 | 30.51858 | 130.86301 | 3522 ft | 153 kts | 14° |
| 2026-04-29 16:45 | 30.52888 | 130.86643 | 3526 ft | 154 kts | 14° |
| 2026-04-29 16:46 | 30.53585 | 130.86876 | 3524 ft | 154 kts | 14° |
| 2026-04-29 16:46 | 30.54621 | 130.87218 | 3530 ft | 155 kts | 15° |
| 2026-04-29 16:46 | 30.55655 | 130.87562 | 3518 ft | 154 kts | 14° |
| 2026-04-29 16:46 | 30.56673 | 130.87896 | 3519 ft | 151 kts | 14° |
| 2026-04-29 16:47 | 30.57669 | 130.88231 | 3521 ft | 151 kts | 14° |
| 2026-04-29 16:47 | 30.58690 | 130.88576 | 3522 ft | 151 kts | 14° |
| 2026-04-29 16:47 | 30.59687 | 130.88903 | 3520 ft | 151 kts | 14° |
| 2026-04-29 16:47 | 30.60709 | 130.89244 | 3471 ft | 156 kts | 14° |
| 2026-04-29 16:48 | 30.61772 | 130.89595 | 3353 ft | 160 kts | 14° |
| 2026-04-29 16:48 | 30.62857 | 130.89933 | 3237 ft | 162 kts | 13° |
| 2026-04-29 16:48 | 30.63904 | 130.90395 | 3097 ft | 163 kts | 36° |
| 2026-04-29 16:48 | 30.64482 | 130.91496 | 2963 ft | 164 kts | 81° |
| 2026-04-29 16:49 | 30.64260 | 130.92765 | 2832 ft | 162 kts | 118° |
| 2026-04-29 16:49 | 30.63719 | 130.93906 | 2715 ft | 161 kts | 121° |
| 2026-04-29 16:49 | 30.63220 | 130.94939 | 2576 ft | 142 kts | 125° |
| 2026-04-29 16:49 | 30.62654 | 130.95785 | 2350 ft | 129 kts | 135° |
| 2026-04-29 16:50 | 30.62063 | 130.96513 | 1922 ft | 119 kts | 134° |
| 2026-04-29 16:50 | 30.61573 | 130.97249 | 1391 ft | 107 kts | 124° |
| 2026-04-29 16:50 | 30.61196 | 130.97937 | 940 ft | 93 kts | 120° |
| 2026-04-29 16:50 | 30.60892 | 130.98486 | 777 ft | 69 kts | 121° |
| 2026-04-29 16:51 | 30.60700 | 130.98825 | 775 ft | 32 kts | 121° |
| 2026-04-29 16:51 | 30.60640 | 130.98936 | 775 ft | 13 kts | 117° |
| 2026-04-29 16:51 | 30.60686 | 130.98982 | 775 ft | 11 kts | 31° |
| 2026-04-29 16:51 | 30.60761 | 130.99040 | 775 ft | 13 kts | 35° |
| 2026-04-29 16:52 | 30.60811 | 130.99077 | 776 ft | 5 kts | 359° |
| 2026-04-29 16:52 | 30.60853 | 130.99050 | 776 ft | 1 kts | 37° |
| 2026-04-29 16:52 | 30.60874 | 130.99071 | 778 ft | 5 kts | 31° |
| 2026-04-29 16:52 | 30.60887 | 130.99080 | 778 ft | 0 kts | 33° |